Time;durP1;ratioP1;P1;durP2;ratioP2;P2;SDS_P1;SDS_P2;PMS_P1;PMS_P2;Temp;Humidity;BMP_temperature;BMP_pressure;BME280_temperature;BME280_humidity;BME280_pressure;Samples;Min_cycle;Max_cycle;Signal;HPM_P1;HPM_P2
2021/11/01 00:01:03;;;;;;;39.60;26.33;;;;;;;6.21;63.95;99998.11;1736861;82;20962;-36
2021/11/01 00:03:30;;;;;;;41.05;27.87;;;;;;;6.20;64.03;99995.17;1713583;82;21285;-36
2021/11/01 00:05:58;;;;;;;39.73;25.92;;;;;;;6.19;63.98;100007.07;1746226;81;20962;-36
2021/11/01 00:08:26;;;;;;;43.87;26.42;;;;;;;6.15;64.04;99998.59;1715636;83;21592;-36
2021/11/01 00:10:53;;;;;;;43.73;27.77;;;;;;;6.10;64.07;99992.23;1723881;81;21138;-36
2021/11/01 00:13:20;;;;;;;41.35;27.73;;;;;;;6.08;64.08;99996.36;1714001;82;21100;-36
2021/11/01 00:15:46;;;;;;;43.83;26.90;;;;;;;6.05;64.05;99988.92;1717271;82;21547;-36
2021/11/01 00:18:13;;;;;;;43.33;28.05;;;;;;;6.03;64.13;100000.53;1741917;82;20992;-36
2021/11/01 00:20:40;;;;;;;39.60;26.25;;;;;;;6.00;64.24;99985.03;1744507;81;21097;-36
2021/11/01 00:23:07;;;;;;;42.10;28.00;;;;;;;5.97;64.32;99988.33;1742001;81;21513;-36
2021/11/01 00:25:35;;;;;;;41.40;26.17;;;;;;;5.95;64.40;99985.17;1704755;82;20949;-36
2021/11/01 00:28:04;;;;;;;40.83;26.45;;;;;;;5.95;64.45;99984.63;1730217;82;21009;-36
2021/11/01 00:30:31;;;;;;;41.10;26.67;;;;;;;5.99;64.47;99982.89;1713980;82;21045;-36
2021/11/01 00:33:00;;;;;;;41.02;26.50;;;;;;;6.01;64.37;99977.17;1728121;82;21349;-36
2021/11/01 00:35:27;;;;;;;37.98;26.23;;;;;;;6.01;64.36;99977.17;1712763;82;21106;-36
2021/11/01 00:37:54;;;;;;;40.60;26.25;;;;;;;6.00;64.19;99971.57;1722402;82;20990;-36
2021/11/01 00:40:20;;;;;;;40.23;26.85;;;;;;;6.01;64.03;99968.55;1732549;82;21014;-36
2021/11/01 00:42:47;;;;;;;40.98;26.70;;;;;;;6.01;64.04;99967.75;1787404;79;20973;-36
2021/11/01 00:45:13;;;;;;;40.98;27.30;;;;;;;5.99;64.08;99967.28;1760699;80;21050;-36
2021/11/01 00:47:40;;;;;;;43.42;28.32;;;;;;;5.97;64.06;99970.28;1760586;80;21110;-36
2021/11/01 00:50:08;;;;;;;45.88;28.47;;;;;;;5.95;64.07;99967.68;1760490;80;21252;-36
2021/11/01 00:52:34;;;;;;;38.83;26.55;;;;;;;5.90;64.11;99965.13;1760230;80;20959;-36
2021/11/01 00:55:04;;;;;;;39.75;26.07;;;;;;;5.86;64.25;99966.81;1764376;80;20979;-36
2021/11/01 00:57:29;;;;;;;42.35;25.62;;;;;;;5.83;64.18;99957.48;1780036;79;21511;-36
2021/11/01 00:59:57;;;;;;;42.10;25.68;;;;;;;5.88;64.12;99957.91;1778131;79;21575;-36
2021/11/01 01:02:25;;;;;;;38.30;25.55;;;;;;;5.92;64.12;99952.14;1765186;80;21047;-37
2021/11/01 01:04:52;;;;;;;40.17;26.75;;;;;;;5.89;64.08;99946.84;1760276;80;21493;-37
2021/11/01 01:07:19;;;;;;;43.95;27.50;;;;;;;5.91;64.08;99950.55;1760263;80;20989;-36
2021/11/01 01:09:45;;;;;;;42.20;26.90;;;;;;;5.91;64.05;99950.55;1760398;80;21485;-36
2021/11/01 01:12:11;;;;;;;42.00;26.82;;;;;;;5.89;64.07;99943.36;1760119;81;21478;-36
2021/11/01 01:14:45;;;;;;;40.90;27.17;;;;;;;5.86;64.02;99943.94;1784185;79;20998;-36
2021/11/01 01:17:07;;;;;;;43.17;28.65;;;;;;;5.83;64.03;99942.68;1791015;79;21009;-36
2021/11/01 01:19:52;;;;;;;42.62;28.60;;;;;;;5.80;64.20;99947.36;1791161;80;21530;-36
2021/11/01 01:22:28;;;;;;;41.18;27.75;;;;;;;5.76;64.38;99940.98;1790514;79;21001;-36
2021/11/01 01:24:48;;;;;;;40.78;26.40;;;;;;;5.69;64.52;99933.39;1787226;79;21128;-37
2021/11/01 01:27:15;;;;;;;43.40;26.33;;;;;;;5.67;64.52;99936.94;1770543;80;20983;-37
2021/11/01 01:29:42;;;;;;;40.12;26.15;;;;;;;5.71;64.60;99929.06;1773433;80;20985;-36
2021/11/01 01:32:09;;;;;;;42.78;26.90;;;;;;;5.76;64.63;99924.84;1784012;80;21659;-36
2021/11/01 01:34:35;;;;;;;45.08;27.93;;;;;;;5.76;64.54;99920.05;1762411;80;21010;-36
2021/11/01 01:37:03;;;;;;;42.30;27.45;;;;;;;5.73;64.48;99916.07;1760078;81;21235;-36
2021/11/01 01:39:30;;;;;;;43.98;27.25;;;;;;;5.72;64.38;99912.34;1787504;80;20918;-36
2021/11/01 01:41:57;;;;;;;38.73;27.20;;;;;;;5.70;64.27;99914.02;1781716;79;21515;-37
2021/11/01 01:44:23;;;;;;;44.65;28.42;;;;;;;5.68;64.26;99912.97;1761265;80;20991;-37
2021/11/01 01:46:51;;;;;;;45.17;29.05;;;;;;;5.65;64.21;99904.75;1760231;81;21041;-38
2021/11/01 01:49:18;;;;;;;45.43;29.15;;;;;;;5.59;64.17;99908.13;1761322;80;21130;-37
2021/11/01 01:51:44;;;;;;;44.33;28.23;;;;;;;5.52;64.10;99907.78;1750528;81;21587;-37
2021/11/01 01:54:11;;;;;;;42.73;27.22;;;;;;;5.45;64.05;99900.73;1686400;82;21836;-36
2021/11/01 01:56:38;;;;;;;38.98;25.50;;;;;;;5.41;63.96;99901.13;1735966;82;21009;-36
2021/11/01 01:59:13;;;;;;;41.37;27.42;;;;;;;5.35;63.94;99899.67;1719623;82;21635;-36
2021/11/01 02:01:41;;;;;;;44.13;27.95;;;;;;;4.94;64.11;99842.20;1708924;82;21205;-37
2021/11/01 02:04:08;;;;;;;48.33;29.45;;;;;;;5.28;64.45;99903.35;1730180;82;21029;-36
2021/11/01 02:07:18;;;;;;;44.98;28.85;;;;;;;5.27;64.68;99897.76;1741217;82;21104;-36
2021/11/01 02:09:57;;;;;;;48.85;29.63;;;;;;;5.25;64.82;99906.67;1733214;82;20995;-36
2021/11/01 02:12:32;;;;;;;47.15;30.72;;;;;;;5.18;64.99;99900.97;1739732;82;21512;-36
2021/11/01 02:15:18;;;;;;;46.60;29.23;;;;;;;5.12;65.16;99895.48;1713568;82;21195;-36
2021/11/01 02:17:47;;;;;;;45.38;30.37;;;;;;;5.07;65.35;99899.09;1713230;82;20957;-37
2021/11/01 02:20:18;;;;;;;47.03;29.77;;;;;;;5.02;65.64;99894.41;1683179;82;21020;-37
2021/11/01 02:23:18;;;;;;;47.78;28.83;;;;;;;5.02;65.76;99897.09;1742419;82;20974;-36
2021/11/01 02:25:47;;;;;;;47.48;30.00;;;;;;;5.07;65.80;99892.93;1727135;82;21013;-36
2021/11/01 02:28:18;;;;;;;50.03;30.30;;;;;;;5.07;66.17;99890.23;1718602;82;21828;-36
2021/11/01 02:30:45;;;;;;;47.30;31.50;;;;;;;5.07;66.17;99890.23;1745599;81;21076;-36
2021/11/01 02:33:13;;;;;;;46.10;30.43;;;;;;;5.07;66.39;99891.58;1722283;81;21006;-36
2021/11/01 02:35:40;;;;;;;45.25;31.25;;;;;;;5.07;66.42;99883.52;1722256;81;21381;-36
2021/11/01 02:38:06;;;;;;;45.08;31.07;;;;;;;5.07;66.46;99878.15;1722572;81;21555;-36
2021/11/01 02:40:34;;;;;;;49.48;32.93;;;;;;;5.03;66.59;99872.61;1747986;81;21139;-36
2021/11/01 02:43:01;;;;;;;48.48;32.85;;;;;;;5.00;66.69;99876.45;1751624;81;20947;-36
2021/11/01 02:45:28;;;;;;;48.52;30.62;;;;;;;4.97;66.86;99870.36;1751741;81;21041;-36
2021/11/01 02:47:54;;;;;;;44.25;28.57;;;;;;;5.01;66.87;99879.37;1744993;81;21040;-36
2021/11/01 02:50:21;;;;;;;42.65;29.32;;;;;;;5.07;66.71;99876.25;1722322;83;21048;-37
2021/11/01 02:52:48;;;;;;;47.23;30.50;;;;;;;5.12;66.58;99866.71;1734150;81;21148;-37
2021/11/01 02:55:16;;;;;;;46.15;30.80;;;;;;;5.13;66.55;99879.02;1734574;81;21053;-37
2021/11/01 02:57:44;;;;;;;51.80;31.50;;;;;;;5.13;66.40;99872.88;1731665;81;20993;-36
2021/11/01 03:00:13;;;;;;;48.38;31.87;;;;;;;5.12;66.41;99871.30;1726594;81;21031;-36
2021/11/01 03:02:40;;;;;;;50.58;32.40;;;;;;;5.11;66.39;99867.02;1737692;81;21381;-36
2021/11/01 03:05:10;;;;;;;49.27;32.25;;;;;;;5.08;66.44;99869.75;1721975;83;21601;-36
2021/11/01 03:07:38;;;;;;;45.70;31.23;;;;;;;5.07;66.43;99870.09;1724646;81;21047;-36
2021/11/01 03:10:06;;;;;;;47.45;32.78;;;;;;;5.05;66.36;99869.59;1720200;81;21012;-36
2021/11/01 03:12:32;;;;;;;48.23;32.38;;;;;;;5.03;66.41;99871.81;1750118;81;21004;-36
2021/11/01 03:15:05;;;;;;;48.05;30.02;;;;;;;5.04;66.31;99866.66;1727344;81;21590;-36
2021/11/01 03:17:39;;;;;;;47.65;30.12;;;;;;;5.06;66.29;99865.27;1722916;81;21081;-37
2021/11/01 03:20:11;;;;;;;46.65;31.93;;;;;;;5.08;66.37;99863.62;1705365;81;21039;-36
2021/11/01 03:22:44;;;;;;;45.40;31.37;;;;;;;5.06;66.48;99865.81;1726036;81;20957;-36
2021/11/01 03:25:20;;;;;;;43.42;30.62;;;;;;;5.04;66.65;99862.63;1722309;81;21037;-37
2021/11/01 03:27:51;;;;;;;51.70;31.65;;;;;;;5.03;66.66;99871.81;1693017;83;22146;-36
2021/11/01 03:30:17;;;;;;;48.98;32.33;;;;;;;5.02;66.61;99866.19;1718277;82;21898;-36
2021/11/01 03:32:45;;;;;;;48.85;32.48;;;;;;;4.39;66.50;99769.30;1718777;82;21081;-36
2021/11/01 03:35:12;;;;;;;51.42;31.62;;;;;;;4.98;66.46;99862.00;1731871;82;21039;-36
2021/11/01 03:37:41;;;;;;;52.10;32.93;;;;;;;4.95;66.55;99863.14;1726792;82;20937;-36
2021/11/01 03:40:15;;;;;;;50.08;32.38;;;;;;;4.93;66.61;99862.67;1743328;82;21053;-37
2021/11/01 03:42:41;;;;;;;;;;;;;;;4.94;66.54;99858.89;1738168;82;21953;-36
2021/11/01 03:45:10;;;;;;;44.98;29.70;;;;;;;4.64;66.64;99808.11;1728280;82;20119;-37
2021/11/01 03:47:41;;;;;;;48.35;32.17;;;;;;;4.94;66.91;99860.23;1716055;82;21563;-36
2021/11/01 03:50:31;;;;;;;49.27;31.70;;;;;;;4.97;66.82;99855.58;1739708;82;21559;-36
2021/11/01 03:52:50;;;;;;;49.85;32.00;;;;;;;4.98;66.67;99853.94;1730935;81;21465;-36
2021/11/01 03:55:18;;;;;;;51.20;32.55;;;;;;;4.98;66.50;99851.80;1736343;82;21167;-36
2021/11/01 03:57:45;;;;;;;49.42;32.08;;;;;;;4.96;66.46;99852.64;1775949;79;21065;-36
2021/11/01 04:00:13;;;;;;;51.53;33.55;;;;;;;4.91;66.45;99850.89;1778739;79;21017;-36
2021/11/01 04:02:39;;;;;;;46.85;33.30;;;;;;;4.88;66.49;99842.66;1770633;79;21060;-36
2021/11/01 04:05:08;;;;;;;49.30;32.65;;;;;;;4.86;66.47;99842.17;1783439;79;20986;-36
2021/11/01 04:07:35;;;;;;;51.37;31.37;;;;;;;4.83;66.41;99844.14;1796729;79;21097;-36
2021/11/01 04:10:02;;;;;;;44.30;29.90;;;;;;;4.82;66.43;99840.66;1768864;79;21014;-36
2021/11/01 04:12:29;;;;;;;45.98;31.00;;;;;;;4.88;66.46;99838.09;1772757;79;21075;-36
2021/11/01 04:15:02;;;;;;;46.85;30.92;;;;;;;4.92;66.40;99843.08;1797905;79;21065;-36
2021/11/01 04:17:36;;;;;;;49.63;32.42;;;;;;;4.90;66.39;99835.86;1796335;79;21017;-37
2021/11/01 04:20:11;;;;;;;53.37;31.80;;;;;;;4.92;66.47;99831.53;1779973;79;21142;-36
2021/11/01 04:22:28;;;;;;;46.45;30.85;;;;;;;4.94;66.31;99826.66;1789702;79;21488;-36
2021/11/01 04:24:53;;;;;;;47.30;31.75;;;;;;;4.92;66.32;99831.53;1788203;79;20994;-36
2021/11/01 04:27:22;;;;;;;48.00;31.10;;;;;;;4.89;66.29;99830.24;1768663;79;20969;-36
2021/11/01 04:29:49;;;;;;;48.80;31.48;;;;;;;4.86;66.31;99828.73;1782242;79;20970;-36
2021/11/01 04:35:05;;;;;;;48.75;31.20;;;;;;;4.74;66.52;99827.99;1793919;79;21021;-36
2021/11/01 04:37:31;;;;;;;45.27;30.20;;;;;;;4.76;66.58;99823.09;1792156;79;21471;-36
2021/11/01 04:53:12;;;;;;;46.98;30.72;;;;;;;4.81;66.32;99814.89;1742700;82;21088;-36
2021/11/01 04:55:37;;;;;;;45.92;31.55;;;;;;;4.74;66.49;99816.67;1734221;82;21017;-36
2021/11/01 04:58:04;;;;;;;49.33;32.05;;;;;;;4.72;66.60;99810.84;1719690;82;21791;-36
2021/11/01 05:00:31;;;;;;;46.23;32.05;;;;;;;4.70;66.66;99811.68;1720236;82;20981;-36
2021/11/01 05:03:15;;;;;;;42.75;30.37;;;;;;;4.69;66.88;99814.15;1733667;81;20965;-36
2021/11/01 05:05:35;;;;;;;44.95;29.55;;;;;;;4.69;66.90;99812.80;1740323;82;21066;-36
2021/11/01 05:08:03;;;;;;;42.80;28.90;;;;;;;4.72;67.10;99811.37;1724263;81;21464;-36
2021/11/01 05:10:37;;;;;;;44.03;29.92;;;;;;;4.75;67.16;99812.89;1728061;82;21113;-36
2021/11/01 05:13:10;;;;;;;47.62;31.30;;;;;;;4.77;67.20;99819.30;1741310;82;21507;-36
2021/11/01 05:15:40;;;;;;;45.12;31.02;;;;;;;4.79;67.26;99813.85;1722320;82;21045;-36
2021/11/01 05:20:50;;;;;;;47.17;30.60;;;;;;;4.80;67.13;99811.96;1669744;82;21092;-36
2021/11/01 05:23:28;;;;;;;45.52;31.07;;;;;;;4.76;67.33;99811.80;1739891;81;21151;-36
2021/11/01 05:25:49;;;;;;;48.20;30.72;;;;;;;4.73;67.40;99807.05;1718248;82;21016;-36
2021/11/01 05:35:49;;;;;;;46.00;31.15;;;;;;;4.77;67.80;99812.59;1732345;82;21899;-36
2021/11/01 05:38:16;;;;;;;47.55;31.62;;;;;;;4.77;68.03;99810.70;1731388;82;21520;-36
2021/11/01 05:40:42;;;;;;;46.08;32.33;;;;;;;4.79;68.27;99815.19;1728189;81;20997;-36
2021/11/01 05:43:09;;;;;;;49.55;32.98;;;;;;;4.84;68.43;99812.16;1712721;82;21021;-36
2021/11/01 05:45:36;;;;;;;49.33;32.13;;;;;;;4.89;68.58;99810.67;1725800;82;21742;-36
2021/11/01 05:48:04;;;;;;;43.23;29.70;;;;;;;4.92;68.49;99808.70;1729787;82;21151;-36
2021/11/01 05:50:35;;;;;;;40.63;28.60;;;;;;;4.97;68.41;99807.22;1719241;82;20969;-36
2021/11/01 05:53:04;;;;;;;48.55;29.52;;;;;;;5.04;68.12;99807.54;1717440;82;21521;-36
2021/11/01 06:13:29;;;;;;;44.10;30.27;;;;;;;5.02;68.82;99823.20;1719378;82;21635;-37
2021/11/01 06:15:57;;;;;;;48.17;31.23;;;;;;;5.08;68.84;99825.99;1731479;82;21038;-36
2021/11/01 06:18:46;;;;;;;46.75;30.23;;;;;;;5.16;68.92;99826.56;1728038;82;21598;-36
2021/11/01 06:20:53;;;;;;;42.50;31.23;;;;;;;5.21;68.80;99831.25;1694763;83;21014;-36
2021/11/01 06:23:21;;;;;;;45.28;31.57;;;;;;;5.24;68.70;99829.27;1722392;82;21269;-36
2021/11/01 06:25:51;;;;;;;46.42;32.20;;;;;;;5.28;68.61;99829.42;1732304;82;21197;-36
2021/11/01 06:28:17;;;;;;;46.83;31.37;;;;;;;5.32;68.58;99821.55;1713243;82;21060;-36
2021/11/01 06:30:57;;;;;;;43.00;30.82;;;;;;;5.37;68.49;99826.78;1727061;82;21043;-36
2021/11/01 06:55:16;;;;;;;43.73;30.60;;;;;;;6.11;68.53;99829.62;1723597;83;21024;-36
2021/11/01 07:19:36;;;;;;;40.35;27.30;;;;;;;7.10;67.23;99826.27;1728163;82;21933;-36
2021/11/01 08:22:17;;;;;;;40.03;29.67;;;;;;;10.96;58.55;99784.58;1791443;80;21007;-37
2021/11/01 08:24:54;;;;;;;37.28;28.98;;;;;;;11.13;58.08;99780.16;1766592;79;21766;-37
2021/11/01 08:30:08;;;;;;;43.15;28.83;;;;;;;11.49;57.16;99780.37;1783127;80;21880;-37
2021/11/01 08:38:02;;;;;;;43.20;29.63;;;;;;;11.87;55.45;99767.42;1788964;80;21038;-37
2021/11/01 08:40:17;;;;;;;36.95;26.85;;;;;;;12.00;55.57;99772.16;1786048;79;21766;-37
2021/11/01 08:50:44;;;;;;;36.98;28.20;;;;;;;12.70;53.94;99763.70;1777271;80;20990;-37
2021/11/01 09:20:10;;;;;;;32.48;24.77;;;;;;;14.24;49.70;99728.83;1788342;80;21953;-37
2021/11/01 09:25:30;;;;;;;32.70;23.92;;;;;;;14.50;48.86;99721.69;1788680;80;21079;-38
2021/11/01 09:27:58;;;;;;;30.82;23.83;;;;;;;14.64;48.31;99721.81;1721192;82;21026;-42
2021/11/01 09:30:36;;;;;;;36.55;25.30;;;;;;;14.75;47.96;99712.56;1727739;81;21032;-42
2021/11/01 09:40:57;;;;;;;33.33;25.23;;;;;;;15.13;47.24;99705.80;1738381;82;20932;-43
2021/11/01 09:43:21;;;;;;;34.73;24.85;;;;;;;15.27;46.69;99705.08;1727561;82;21045;-43
2021/11/01 09:45:56;;;;;;;31.95;24.30;;;;;;;15.39;46.50;99699.89;1784041;79;20952;-42
2021/11/01 09:48:24;;;;;;;33.83;25.35;;;;;;;15.50;46.23;99689.19;1768724;79;21048;-42
2021/11/01 09:50:51;;;;;;;33.92;24.25;;;;;;;15.60;45.61;99687.70;1799241;79;21570;-42
2021/11/01 09:53:24;;;;;;;30.70;24.23;;;;;;;15.67;45.82;99682.84;1768150;80;21070;-43
2021/11/01 10:01:10;;;;;;;29.07;22.82;;;;;;;16.01;45.12;99672.59;1784123;80;21055;-42
2021/11/01 10:03:41;;;;;;;30.25;23.65;;;;;;;16.12;45.11;99678.67;1783193;78;21019;-42
2021/11/01 10:06:17;;;;;;;29.63;22.73;;;;;;;16.17;44.96;99670.84;1782607;80;20960;-42
2021/11/01 10:08:51;;;;;;;28.50;21.73;;;;;;;16.26;44.42;99672.64;1783797;80;21000;-42
2021/11/01 10:11:23;;;;;;;31.10;24.37;;;;;;;16.33;43.95;99666.37;1784022;80;21150;-42
2021/11/01 10:13:55;;;;;;;29.02;22.98;;;;;;;16.34;44.23;99663.25;1784043;80;21003;-42
2021/11/01 10:19:41;;;;;;;30.43;24.52;;;;;;;16.51;44.23;99656.20;1784293;80;21028;-43
2021/11/01 10:22:23;;;;;;;28.12;24.10;;;;;;;16.49;43.77;99655.83;1777907;80;21075;-43
2021/11/01 10:24:41;;;;;;;31.05;24.67;;;;;;;16.46;43.82;99659.33;1759670;80;20987;-43
2021/11/01 10:27:14;;;;;;;34.58;25.40;;;;;;;16.43;43.72;99653.28;1764709;80;20999;-43
2021/11/01 10:30:02;;;;;;;34.00;24.82;;;;;;;16.43;44.22;99649.96;1784910;79;21065;-42
2021/11/01 10:32:32;;;;;;;35.63;26.27;;;;;;;16.47;43.85;99649.37;1804498;79;21004;-43
2021/11/01 10:35:30;;;;;;;36.10;28.92;;;;;;;16.43;43.93;99641.75;1804374;79;21001;-43
2021/11/01 10:38:27;;;;;;;37.60;27.25;;;;;;;16.45;44.21;99648.20;1728477;82;21805;-43
2021/11/01 10:41:06;;;;;;;37.73;28.02;;;;;;;16.49;43.62;99638.03;1753246;81;21013;-43
2021/11/01 10:45:37;;;;;;;37.40;27.22;;;;;;;16.72;44.17;99643.91;1786546;79;22172;-42
2021/11/01 11:14:36;;;;;;;37.73;29.07;;;;;;;17.96;41.38;99618.73;1708448;84;21107;-42
2021/11/01 11:47:47;;;;;;;37.65;28.15;;;;;;;18.67;39.90;99575.63;1774647;80;21005;-40
2021/11/01 11:50:17;;;;;;;;;;;;;;;18.71;39.69;99568.72;1777148;80;21510;-39
2021/11/01 11:52:44;;;;;;;41.85;29.50;;;;;;;18.57;39.90;99573.77;1770835;80;20445;-39
2021/11/01 11:55:28;;;;;;;42.75;29.82;;;;;;;18.44;40.24;99576.82;1747663;82;21611;-40
2021/11/01 11:58:01;;;;;;;40.33;29.63;;;;;;;18.51;40.17;99570.66;1743333;82;22006;-39
2021/11/01 12:00:31;;;;;;;40.92;30.27;;;;;;;18.51;40.20;99568.50;1744065;80;21641;-39
2021/11/01 12:03:12;;;;;;;43.63;32.05;;;;;;;18.55;40.05;99571.42;1758879;80;20988;-39
2021/11/01 12:05:47;;;;;;;43.95;31.60;;;;;;;18.59;39.96;99566.67;1742308;80;21257;-39
2021/11/01 12:08:21;;;;;;;38.75;29.45;;;;;;;18.62;39.99;99564.50;1757136;80;21020;-39
2021/11/01 12:18:58;;;;;;;40.58;28.52;;;;;;;18.70;39.82;99554.80;1746666;80;21087;-39
2021/11/01 12:21:26;;;;;;;42.40;28.20;;;;;;;18.76;39.77;99551.20;1759302;80;21025;-39
2021/11/01 12:23:52;;;;;;;38.65;29.32;;;;;;;18.79;39.78;99550.96;1759410;80;21778;-39
2021/11/01 12:26:21;;;;;;;42.40;30.37;;;;;;;18.72;39.70;99552.43;1752587;80;21095;-39
2021/11/01 12:28:57;;;;;;;39.70;30.43;;;;;;;18.59;39.85;99555.69;1770266;80;21044;-39
2021/11/01 12:31:26;;;;;;;40.73;30.10;;;;;;;18.47;40.09;99552.66;1772173;80;21076;-39
2021/11/01 12:33:57;;;;;;;39.98;29.60;;;;;;;18.36;40.41;99549.23;1743370;82;21092;-39
2021/11/01 12:36:29;;;;;;;38.40;30.50;;;;;;;18.29;40.62;99543.23;1757753;80;21145;-39
2021/11/01 12:39:11;;;;;;;42.78;31.02;;;;;;;18.17;40.75;99534.90;1771392;80;20886;-39
2021/11/01 12:41:52;;;;;;;40.85;30.20;;;;;;;17.90;41.11;99537.30;1769113;80;20949;-39
2021/11/01 12:57:35;;;;;;;44.05;31.35;;;;;;;16.33;44.30;99540.52;1735862;82;21033;-38
2021/11/01 13:00:05;;;;;;;41.90;29.92;;;;;;;16.04;44.91;99535.07;1720865;82;21100;-38
2021/11/01 13:02:35;;;;;;;43.42;32.65;;;;;;;15.76;45.43;99540.54;1726398;82;21777;-38
2021/11/01 13:05:07;;;;;;;46.08;31.45;;;;;;;15.52;46.02;99535.82;1735948;82;21132;-38
2021/11/01 13:07:53;;;;;;;43.35;32.05;;;;;;;15.26;46.64;99531.43;1730467;82;21580;-38
2021/11/01 13:10:37;;;;;;;46.10;31.68;;;;;;;15.05;47.17;99530.80;1723437;82;21021;-38
2021/11/01 13:18:29;;;;;;;50.17;32.42;;;;;;;14.45;48.71;99522.91;1741110;82;20973;-38
2021/11/01 13:21:01;;;;;;;42.80;31.40;;;;;;;14.39;49.10;99512.93;1722015;82;20943;-43
2021/11/01 13:23:35;;;;;;;40.50;28.98;;;;;;;14.42;49.12;99512.77;1724103;82;20986;-43
2021/11/01 13:37:21;;;;;;;44.30;30.08;;;;;;;13.73;50.58;99501.73;1712893;83;20995;-43
2021/11/01 13:40:06;;;;;;;43.15;29.02;;;;;;;13.56;50.99;99501.76;1712910;83;21087;-43
2021/11/01 13:42:34;;;;;;;43.25;31.15;;;;;;;13.44;51.34;99500.69;1681442;82;21561;-43
2021/11/01 13:45:16;;;;;;;45.92;31.77;;;;;;;13.34;51.66;99507.60;1716443;82;21020;-43
2021/11/01 13:47:50;;;;;;;51.73;33.35;;;;;;;13.27;51.90;99506.16;1720887;82;21049;-43
2021/11/01 13:50:21;;;;;;;49.45;32.42;;;;;;;13.15;52.19;99502.34;1740455;82;20981;-43
2021/11/01 13:53:14;;;;;;;54.70;32.70;;;;;;;13.05;52.51;99497.53;1728928;82;21522;-42
2021/11/01 13:55:49;;;;;;;45.92;32.03;;;;;;;12.99;52.68;99499.80;1738124;82;21983;-43
2021/11/01 14:10:53;;;;;;;45.60;32.08;;;;;;;12.69;53.66;99486.80;1710779;83;21357;-43
2021/11/01 14:11:44;;;;;;;45.43;30.82;;;;;;;12.58;53.84;99489.98;1706485;83;21812;-43
2021/11/01 14:14:24;;;;;;;;;;;;;;;12.48;54.12;99489.27;1713490;82;21002;-43
2021/11/01 14:30:24;;;;;;;45.38;30.92;;;;;;;11.76;55.99;99478.52;1739145;82;20922;-43
2021/11/01 15:10:27;;;;;;;54.67;34.60;;;;;;;10.29;59.65;99471.26;1758764;81;21026;-42
2021/11/01 15:15:32;;;;;;;49.13;32.58;;;;;;;10.19;59.90;99475.31;1758691;81;21127;-42
2021/11/01 15:32:01;;;;;;;50.63;31.75;;;;;;;10.15;60.18;99471.70;1758702;81;21013;-43
2021/11/01 16:20:08;;;;;;;47.38;32.85;;;;;;;9.62;62.29;99482.66;1690367;82;21077;-42
2021/11/01 16:22:39;;;;;;;47.10;32.90;;;;;;;9.58;62.45;99479.84;1743349;82;21528;-42
2021/11/01 16:25:07;;;;;;;50.10;34.20;;;;;;;9.55;62.53;99476.48;1743284;82;21016;-43
2021/11/01 16:27:35;;;;;;;49.60;30.90;;;;;;;9.49;62.69;99487.91;1746987;82;20981;-42
2021/11/01 16:30:14;;;;;;;49.10;35.48;;;;;;;9.48;62.74;99487.16;1743162;82;21001;-42
2021/11/01 16:32:41;;;;;;;52.65;36.42;;;;;;;9.51;62.75;99482.95;1760092;80;21072;-42
2021/11/01 16:35:07;;;;;;;54.08;36.75;;;;;;;9.52;62.86;99493.44;1773763;80;21224;-43
2021/11/01 16:37:51;;;;;;;49.50;34.88;;;;;;;9.53;62.89;99490.16;1774078;80;21491;-42
2021/11/01 16:40:15;;;;;;;52.65;36.45;;;;;;;9.53;62.85;99495.58;1773790;80;21012;-43
2021/11/01 16:42:46;;;;;;;56.05;37.08;;;;;;;9.49;62.93;99492.77;1774061;80;21013;-42
2021/11/01 16:45:25;;;;;;;58.20;38.15;;;;;;;9.46;62.98;99494.03;1775499;80;21080;-42
2021/11/01 16:47:47;;;;;;;53.52;37.25;;;;;;;9.42;63.10;99496.66;1714644;83;21153;-43
2021/11/01 16:50:16;;;;;;;58.30;38.90;;;;;;;9.35;63.29;99496.46;1782281;80;20937;-42
2021/11/01 16:52:45;;;;;;;57.27;38.53;;;;;;;9.31;63.49;99498.86;1715359;83;21021;-42
2021/11/01 16:55:17;;;;;;;50.95;33.95;;;;;;;9.25;63.70;99493.47;1782115;80;21540;-41
2021/11/01 16:57:46;;;;;;;48.60;33.20;;;;;;;9.23;63.93;99498.46;1782121;80;20980;-42
2021/11/01 17:00:26;;;;;;;51.25;34.65;;;;;;;9.24;64.07;99495.42;1782131;80;21801;-43
2021/11/01 17:03:10;;;;;;;52.80;33.80;;;;;;;9.21;64.24;99492.59;1765232;80;21057;-42
2021/11/01 17:24:42;;;;;;;45.30;30.35;;;;;;;9.15;65.81;99477.98;1751148;82;21114;-43
2021/11/01 18:46:42;;;;;;;43.60;31.05;;;;;;;9.68;66.59;99433.10;1693471;84;21109;-42
2021/11/01 18:51:55;;;;;;;45.80;32.13;;;;;;;9.65;66.64;99425.09;1748422;82;21551;-43
2021/11/01 18:54:27;;;;;;;39.35;29.07;;;;;;;9.63;66.68;99423.33;1748248;82;21053;-42
2021/11/01 18:56:58;;;;;;;43.58;29.12;;;;;;;9.62;66.76;99423.11;1748589;82;21041;-42
2021/11/01 18:59:27;;;;;;;42.60;29.63;;;;;;;9.69;66.70;99419.20;1748612;82;21040;-42
2021/11/01 19:02:19;;;;;;;42.85;30.88;;;;;;;9.70;66.66;99415.36;1744471;82;21112;-42
2021/11/01 19:04:34;;;;;;;43.15;30.82;;;;;;;9.69;66.71;99413.78;1715028;83;21079;-42
2021/11/01 19:09:48;;;;;;;47.27;32.20;;;;;;;9.68;66.70;99400.62;1718880;83;21030;-42
2021/11/01 21:25:24;;;;;;;45.30;32.98;;;;;;;9.18;67.45;99333.72;1721196;83;20984;-40
2021/11/01 21:27:51;;;;;;;45.20;32.27;;;;;;;9.21;67.29;99337.06;1720742;83;21024;-42
2021/11/01 21:30:17;;;;;;;44.05;33.05;;;;;;;9.25;67.16;99333.88;1721310;83;21005;-41
2021/11/01 21:32:44;;;;;;;47.62;32.63;;;;;;;9.27;67.08;99332.97;1721173;83;21145;-42
2021/11/01 21:35:15;;;;;;;46.77;30.62;;;;;;;9.28;66.96;99327.22;1721099;83;20976;-41
2021/11/01 21:37:43;;;;;;;50.03;32.73;;;;;;;9.32;66.85;99329.99;1716796;83;20949;-41
2021/11/01 21:40:12;;;;;;;44.23;31.42;;;;;;;9.41;66.63;99330.02;1692645;83;21283;-41
2021/11/01 21:42:42;;;;;;;42.00;32.05;;;;;;;9.44;66.54;99323.14;1721152;83;21601;-41
2021/11/01 21:45:10;;;;;;;46.95;33.80;;;;;;;9.45;66.69;99320.06;1721382;83;22071;-42
2021/11/01 21:47:39;;;;;;;46.25;33.58;;;;;;;9.45;66.69;99320.06;1717628;83;21025;-42
2021/11/01 21:50:07;;;;;;;47.90;33.30;;;;;;;9.46;66.37;99315.44;1713679;83;21487;-42
2021/11/01 21:52:35;;;;;;;47.83;34.73;;;;;;;9.44;66.28;99302.84;1713718;83;21012;-42
2021/11/01 21:55:05;;;;;;;45.45;33.15;;;;;;;9.42;66.26;99306.45;1693658;83;21068;-41
2021/11/01 21:57:40;;;;;;;42.53;30.90;;;;;;;9.40;66.20;99305.45;1708483;83;21173;-41
2021/11/01 22:01:08;;;;;;;42.75;31.82;;;;;;;9.42;66.15;99308.59;1713658;83;20981;-41
2021/11/01 22:16:49;;;;;;;45.85;32.05;;;;;;;9.05;66.61;99299.24;1713453;83;20941;-42
2021/11/01 22:19:43;;;;;;;48.68;33.53;;;;;;;8.98;66.76;99301.20;1712739;83;21582;-42
2021/11/01 22:22:09;;;;;;;46.23;33.98;;;;;;;8.93;66.88;99292.00;1710875;82;21020;-42
2021/11/01 22:24:32;;;;;;;47.05;32.93;;;;;;;8.87;67.06;99289.33;1713792;83;21135;-42
2021/11/01 22:31:57;;;;;;;50.92;35.33;;;;;;;8.84;67.18;99283.84;1713329;83;21048;-41
2021/11/01 22:40:18;;;;;;;52.33;36.73;;;;;;;8.54;67.53;99272.67;1713421;83;20126;-42
2021/11/01 22:42:48;;;;;;;52.00;37.35;;;;;;;8.43;67.94;99271.61;1713942;82;21084;-42
2021/11/01 22:45:22;;;;;;;53.00;38.42;;;;;;;8.44;67.93;99269.13;1713839;82;21002;-42
2021/11/01 22:55:57;;;;;;;53.20;37.98;;;;;;;8.33;67.79;99268.09;1726259;83;20980;-42
2021/11/01 22:58:24;;;;;;;54.75;39.50;;;;;;;8.38;67.76;99271.30;1726599;82;21028;-42
2021/11/01 23:02:43;;;;;;;58.83;40.48;;;;;;;8.46;67.68;99265.53;1790804;79;22739;-41
2021/11/01 23:05:28;;;;;;;57.20;40.80;;;;;;;8.34;67.87;99269.08;1750254;80;20996;-41
2021/11/01 23:32:13;;;;;;;61.20;44.05;;;;;;;8.48;67.08;99251.09;1756966;81;21538;-41
2021/11/01 23:34:40;;;;;;;57.78;40.28;;;;;;;8.45;67.10;99247.74;1756830;81;21823;-41
2021/11/01 23:37:07;;;;;;;53.17;38.95;;;;;;;8.41;67.03;99239.56;1757120;81;21011;-41
2021/11/01 23:39:33;;;;;;;58.00;41.95;;;;;;;8.42;67.02;99243.05;1757063;81;21025;-42
2021/11/01 23:41:59;;;;;;;58.60;42.53;;;;;;;8.43;67.04;99237.27;1756938;81;21016;-41
2021/11/01 23:44:26;;;;;;;61.80;43.28;;;;;;;8.44;67.03;99234.02;1756972;81;21504;-41
2021/11/01 23:46:54;;;;;;;64.17;43.55;;;;;;;8.42;66.98;99229.54;1756999;81;21832;-41